Strona główna
METAR-TAF:

METAR-TAF

Lotnisko :

Port lotniczy Algier

Algier, Algieria

Szerokość geograficzna: 36-43N, Długość geograficzna: 003-15E, wysokość: 25 m

Aktualna obserwacja pogody

Raport powstał 43 minut temu, godzina 22:00 UTC
Wiatr 3 kt od wschód
Temperatura 22°C
Wilgotność 88%
Ciśnienie 1023 hPa
Widzialność 10 km lub więcej
Brak chmur poniżej 1500 m i brak chmur cumulonimbus

METAR: DAAG 222200Z 10003KT CAVOK 22/20 Q1023

czas: 23:43 (22:43 UTC)

Prognoza

Raport powstał 5 godziny i 43 minut temu, godzina 17:00 UTC
Prognoza ważna od 22 godzina 18 UTC do 23 godzina 18 UTC
Wiatr 10 kt od wschodnio-północny wschód
Widzialność 10 km lub więcej
Brak chmur poniżej 1500 m i brak chmur cumulonimbus
Stopniowe zmiany
od 22 godzina 19 UTC do 22 godzina 22 UTC
Wiatr 2 kt z kierunków zmiennych
Stopniowe zmiany
od 23 godzina 10 UTC do 23 godzina 12 UTC
Wiatr 10 kt od północno-północny wschód

TAF: DAAG 221700Z 2218/2318 06010KT CAVOK BECMG 2219/2222 VRB02KT BECMG 2310/2312 02010KT

Obserwacja i prognoza pogody dla ponad 4000 lotnisk (raport METAR i TAF).

Dostępne stacje oznaczono żółtymi i czerwonymi punktami na mapie.

Najedź kursorem aby zobaczyć nazwę stacji.

Kliknij aby zobaczyć obserwacje i prognozy pogody.

Aby zmienić mapę: kliknij na zielony przycisk z czarnym krzyżykiem, aby powiększyć; na zielony przycisk z myślnikiem, aby pomniejszyć; na zielone strzałki, aby przejść do map sąsiednich.


METAR-TAF: